sensor_id;sensor_type;location;lat;lon;timestamp;P1;P2;P0
67892;PMS7003;54688;52.376;16.744;2022-08-24T00:02:50;21;16;
67892;PMS7003;54688;52.376;16.744;2022-08-24T00:05:53;17;16;
67892;PMS7003;54688;52.376;16.744;2022-08-24T00:08:57;18;16;
67892;PMS7003;54688;52.376;16.744;2022-08-24T00:12:00;23;18;
67892;PMS7003;54688;52.376;16.744;2022-08-24T00:15:07;23;20;
67892;PMS7003;54688;52.376;16.744;2022-08-24T00:18:09;20;16;
67892;PMS7003;54688;52.376;16.744;2022-08-24T00:21:11;21;19;
67892;PMS7003;54688;52.376;16.744;2022-08-24T00:24:14;17;16;
67892;PMS7003;54688;52.376;16.744;2022-08-24T00:27:16;23;17;
67892;PMS7003;54688;52.376;16.744;2022-08-24T00:30:19;21;19;
67892;PMS7003;54688;52.376;16.744;2022-08-24T00:36:20;18;18;
67892;PMS7003;54688;52.376;16.744;2022-08-24T00:39:23;16;16;
67892;PMS7003;54688;52.376;16.744;2022-08-24T00:42:25;15;13;
67892;PMS7003;54688;52.376;16.744;2022-08-24T00:45:27;18;16;
67892;PMS7003;54688;52.376;16.744;2022-08-24T00:48:33;20;17;
67892;PMS7003;54688;52.376;16.744;2022-08-24T00:51:38;19;17;
67892;PMS7003;54688;52.376;16.744;2022-08-24T00:54:43;20;18;
67892;PMS7003;54688;52.376;16.744;2022-08-24T01:00:47;15;15;
67892;PMS7003;54688;52.376;16.744;2022-08-24T01:03:51;16;15;
67892;PMS7003;54688;52.376;16.744;2022-08-24T01:06:53;16;15;
67892;PMS7003;54688;52.376;16.744;2022-08-24T01:09:58;15;15;
67892;PMS7003;54688;52.376;16.744;2022-08-24T01:13:04;17;16;
67892;PMS7003;54688;52.376;16.744;2022-08-24T01:16:07;19;16;
67892;PMS7003;54688;52.376;16.744;2022-08-24T01:19:15;18;18;
67892;PMS7003;54688;52.376;16.744;2022-08-24T01:22:29;16;14;
67892;PMS7003;54688;52.376;16.744;2022-08-24T01:25:37;15;14;
67892;PMS7003;54688;52.376;16.744;2022-08-24T01:28:41;18;18;
67892;PMS7003;54688;52.376;16.744;2022-08-24T01:31:45;19;16;
67892;PMS7003;54688;52.376;16.744;2022-08-24T01:34:48;13;11;
67892;PMS7003;54688;52.376;16.744;2022-08-24T01:37:51;18;15;
67892;PMS7003;54688;52.376;16.744;2022-08-24T01:40:58;17;15;
67892;PMS7003;54688;52.376;16.744;2022-08-24T01:44:02;18;15;
67892;PMS7003;54688;52.376;16.744;2022-08-24T01:47:08;16;14;
67892;PMS7003;54688;52.376;16.744;2022-08-24T01:50:11;15;15;
67892;PMS7003;54688;52.376;16.744;2022-08-24T01:53:13;18;15;
67892;PMS7003;54688;52.376;16.744;2022-08-24T01:56:15;13;13;
67892;PMS7003;54688;52.376;16.744;2022-08-24T01:59:18;14;12;
67892;PMS7003;54688;52.376;16.744;2022-08-24T02:02:23;20;16;
67892;PMS7003;54688;52.376;16.744;2022-08-24T02:05:29;13;13;
67892;PMS7003;54688;52.376;16.744;2022-08-24T02:08:32;19;15;
67892;PMS7003;54688;52.376;16.744;2022-08-24T02:11:35;15;15;
67892;PMS7003;54688;52.376;16.744;2022-08-24T02:14:37;17;17;
67892;PMS7003;54688;52.376;16.744;2022-08-24T02:17:39;19;17;
67892;PMS7003;54688;52.376;16.744;2022-08-24T02:20:41;21;17;
67892;PMS7003;54688;52.376;16.744;2022-08-24T02:23:44;18;18;
67892;PMS7003;54688;52.376;16.744;2022-08-24T02:26:46;17;16;
67892;PMS7003;54688;52.376;16.744;2022-08-24T02:29:48;22;17;
67892;PMS7003;54688;52.376;16.744;2022-08-24T02:32:51;23;19;
67892;PMS7003;54688;52.376;16.744;2022-08-24T02:35:53;17;15;
67892;PMS7003;54688;52.376;16.744;2022-08-24T02:38:55;17;16;
67892;PMS7003;54688;52.376;16.744;2022-08-24T02:41:58;23;22;
67892;PMS7003;54688;52.376;16.744;2022-08-24T02:45:00;18;15;
67892;PMS7003;54688;52.376;16.744;2022-08-24T02:48:02;18;17;
67892;PMS7003;54688;52.376;16.744;2022-08-24T02:51:04;23;21;
67892;PMS7003;54688;52.376;16.744;2022-08-24T02:54:06;20;17;
67892;PMS7003;54688;52.376;16.744;2022-08-24T02:57:09;20;16;
67892;PMS7003;54688;52.376;16.744;2022-08-24T03:00:13;20;19;
67892;PMS7003;54688;52.376;16.744;2022-08-24T03:03:16;25;21;
67892;PMS7003;54688;52.376;16.744;2022-08-24T03:09:20;22;20;
67892;PMS7003;54688;52.376;16.744;2022-08-24T03:12:22;20;19;
67892;PMS7003;54688;52.376;16.744;2022-08-24T03:15:23;20;18;
67892;PMS7003;54688;52.376;16.744;2022-08-24T03:18:26;22;15;
67892;PMS7003;54688;52.376;16.744;2022-08-24T03:21:28;18;16;
67892;PMS7003;54688;52.376;16.744;2022-08-24T03:24:30;18;18;
67892;PMS7003;54688;52.376;16.744;2022-08-24T03:27:32;21;19;
67892;PMS7003;54688;52.376;16.744;2022-08-24T03:30:34;22;19;
67892;PMS7003;54688;52.376;16.744;2022-08-24T03:33:36;16;16;
67892;PMS7003;54688;52.376;16.744;2022-08-24T03:36:38;21;18;
67892;PMS7003;54688;52.376;16.744;2022-08-24T03:39:40;23;20;
67892;PMS7003;54688;52.376;16.744;2022-08-24T03:42:42;20;18;
67892;PMS7003;54688;52.376;16.744;2022-08-24T03:45:43;21;19;
67892;PMS7003;54688;52.376;16.744;2022-08-24T03:48:46;21;18;
67892;PMS7003;54688;52.376;16.744;2022-08-24T03:51:49;19;17;
67892;PMS7003;54688;52.376;16.744;2022-08-24T03:54:52;15;15;
67892;PMS7003;54688;52.376;16.744;2022-08-24T03:57:54;20;17;
67892;PMS7003;54688;52.376;16.744;2022-08-24T04:00:56;18;18;
67892;PMS7003;54688;52.376;16.744;2022-08-24T04:03:59;21;20;
67892;PMS7003;54688;52.376;16.744;2022-08-24T04:07:03;18;16;
67892;PMS7003;54688;52.376;16.744;2022-08-24T04:10:05;19;17;
67892;PMS7003;54688;52.376;16.744;2022-08-24T04:13:08;18;15;
67892;PMS7003;54688;52.376;16.744;2022-08-24T04:16:11;15;13;
67892;PMS7003;54688;52.376;16.744;2022-08-24T04:19:14;25;22;
67892;PMS7003;54688;52.376;16.744;2022-08-24T04:22:16;21;16;
67892;PMS7003;54688;52.376;16.744;2022-08-24T04:25:18;20;16;
67892;PMS7003;54688;52.376;16.744;2022-08-24T04:28:21;21;18;
67892;PMS7003;54688;52.376;16.744;2022-08-24T04:31:23;22;17;
67892;PMS7003;54688;52.376;16.744;2022-08-24T04:34:26;22;20;
67892;PMS7003;54688;52.376;16.744;2022-08-24T04:37:28;19;19;
67892;PMS7003;54688;52.376;16.744;2022-08-24T04:40:30;23;20;
67892;PMS7003;54688;52.376;16.744;2022-08-24T04:43:33;20;20;
67892;PMS7003;54688;52.376;16.744;2022-08-24T04:46:36;16;15;
67892;PMS7003;54688;52.376;16.744;2022-08-24T04:49:38;19;18;
67892;PMS7003;54688;52.376;16.744;2022-08-24T04:52:40;18;16;
67892;PMS7003;54688;52.376;16.744;2022-08-24T04:55:45;22;17;
67892;PMS7003;54688;52.376;16.744;2022-08-24T04:58:47;20;18;
67892;PMS7003;54688;52.376;16.744;2022-08-24T05:01:49;25;24;
67892;PMS7003;54688;52.376;16.744;2022-08-24T05:04:52;17;16;
67892;PMS7003;54688;52.376;16.744;2022-08-24T05:07:55;21;20;
67892;PMS7003;54688;52.376;16.744;2022-08-24T05:10:58;27;27;
67892;PMS7003;54688;52.376;16.744;2022-08-24T05:14:00;24;21;
67892;PMS7003;54688;52.376;16.744;2022-08-24T05:17:03;26;23;
67892;PMS7003;54688;52.376;16.744;2022-08-24T05:20:06;26;25;
67892;PMS7003;54688;52.376;16.744;2022-08-24T05:23:08;20;20;
67892;PMS7003;54688;52.376;16.744;2022-08-24T05:26:13;33;26;
67892;PMS7003;54688;52.376;16.744;2022-08-24T05:29:15;23;20;
67892;PMS7003;54688;52.376;16.744;2022-08-24T05:32:18;31;29;
67892;PMS7003;54688;52.376;16.744;2022-08-24T05:35:19;24;22;
67892;PMS7003;54688;52.376;16.744;2022-08-24T05:38:23;25;23;
67892;PMS7003;54688;52.376;16.744;2022-08-24T05:41:27;33;27;
67892;PMS7003;54688;52.376;16.744;2022-08-24T05:44:29;29;25;
67892;PMS7003;54688;52.376;16.744;2022-08-24T05:47:31;33;27;
67892;PMS7003;54688;52.376;16.744;2022-08-24T05:50:33;24;24;
67892;PMS7003;54688;52.376;16.744;2022-08-24T05:53:35;30;25;
67892;PMS7003;54688;52.376;16.744;2022-08-24T05:56:38;23;22;
67892;PMS7003;54688;52.376;16.744;2022-08-24T05:59:41;25;20;
67892;PMS7003;54688;52.376;16.744;2022-08-24T06:02:43;28;23;
67892;PMS7003;54688;52.376;16.744;2022-08-24T06:05:45;24;23;
67892;PMS7003;54688;52.376;16.744;2022-08-24T06:08:50;26;22;
67892;PMS7003;54688;52.376;16.744;2022-08-24T06:11:52;24;19;
67892;PMS7003;54688;52.376;16.744;2022-08-24T06:14:54;21;17;
67892;PMS7003;54688;52.376;16.744;2022-08-24T06:17:56;20;17;
67892;PMS7003;54688;52.376;16.744;2022-08-24T06:21:03;25;24;
67892;PMS7003;54688;52.376;16.744;2022-08-24T06:24:05;19;19;
67892;PMS7003;54688;52.376;16.744;2022-08-24T06:27:08;19;19;
67892;PMS7003;54688;52.376;16.744;2022-08-24T06:30:11;20;18;
67892;PMS7003;54688;52.376;16.744;2022-08-24T06:33:13;19;16;
67892;PMS7003;54688;52.376;16.744;2022-08-24T06:36:15;20;17;
67892;PMS7003;54688;52.376;16.744;2022-08-24T06:39:17;22;21;
67892;PMS7003;54688;52.376;16.744;2022-08-24T06:42:20;20;19;
67892;PMS7003;54688;52.376;16.744;2022-08-24T06:45:22;16;16;
67892;PMS7003;54688;52.376;16.744;2022-08-24T06:48:24;15;15;
67892;PMS7003;54688;52.376;16.744;2022-08-24T06:51:26;19;18;
67892;PMS7003;54688;52.376;16.744;2022-08-24T06:57:28;17;17;
67892;PMS7003;54688;52.376;16.744;2022-08-24T07:00:30;14;14;
67892;PMS7003;54688;52.376;16.744;2022-08-24T07:03:33;21;16;
67892;PMS7003;54688;52.376;16.744;2022-08-24T07:06:35;12;11;
67892;PMS7003;54688;52.376;16.744;2022-08-24T07:09:38;16;13;
67892;PMS7003;54688;52.376;16.744;2022-08-24T07:12:40;19;18;
67892;PMS7003;54688;52.376;16.744;2022-08-24T07:15:43;16;15;
67892;PMS7003;54688;52.376;16.744;2022-08-24T07:18:46;12;12;
67892;PMS7003;54688;52.376;16.744;2022-08-24T07:21:49;12;12;
67892;PMS7003;54688;52.376;16.744;2022-08-24T07:24:52;18;17;
67892;PMS7003;54688;52.376;16.744;2022-08-24T07:27:54;16;15;
67892;PMS7003;54688;52.376;16.744;2022-08-24T07:30:56;13;12;
67892;PMS7003;54688;52.376;16.744;2022-08-24T07:33:58;13;13;
67892;PMS7003;54688;52.376;16.744;2022-08-24T07:37:00;16;15;
67892;PMS7003;54688;52.376;16.744;2022-08-24T07:40:04;17;14;
67892;PMS7003;54688;52.376;16.744;2022-08-24T07:43:07;15;14;
67892;PMS7003;54688;52.376;16.744;2022-08-24T07:46:09;15;12;
67892;PMS7003;54688;52.376;16.744;2022-08-24T07:49:11;16;15;
67892;PMS7003;54688;52.376;16.744;2022-08-24T07:52:13;14;13;
67892;PMS7003;54688;52.376;16.744;2022-08-24T07:55:16;15;15;
67892;PMS7003;54688;52.376;16.744;2022-08-24T07:58:18;21;20;
67892;PMS7003;54688;52.376;16.744;2022-08-24T08:01:21;15;15;
67892;PMS7003;54688;52.376;16.744;2022-08-24T08:04:23;18;15;
67892;PMS7003;54688;52.376;16.744;2022-08-24T08:07:25;15;13;
67892;PMS7003;54688;52.376;16.744;2022-08-24T08:10:28;15;15;
67892;PMS7003;54688;52.376;16.744;2022-08-24T08:13:30;13;13;
67892;PMS7003;54688;52.376;16.744;2022-08-24T08:16:32;18;12;
67892;PMS7003;54688;52.376;16.744;2022-08-24T08:19:34;12;12;
67892;PMS7003;54688;52.376;16.744;2022-08-24T08:22:37;16;15;
67892;PMS7003;54688;52.376;16.744;2022-08-24T08:28:39;13;11;
67892;PMS7003;54688;52.376;16.744;2022-08-24T08:31:41;11;10;
67892;PMS7003;54688;52.376;16.744;2022-08-24T08:34:43;11;9;
67892;PMS7003;54688;52.376;16.744;2022-08-24T08:37:46;11;11;
67892;PMS7003;54688;52.376;16.744;2022-08-24T08:40:52;13;12;
67892;PMS7003;54688;52.376;16.744;2022-08-24T08:44:00;13;12;
67892;PMS7003;54688;52.376;16.744;2022-08-24T08:47:14;17;15;
67892;PMS7003;54688;52.376;16.744;2022-08-24T08:50:20;14;12;
67892;PMS7003;54688;52.376;16.744;2022-08-24T08:53:43;15;12;
67892;PMS7003;54688;52.376;16.744;2022-08-24T08:57:06;12;12;
67892;PMS7003;54688;52.376;16.744;2022-08-24T09:00:15;12;10;
67892;PMS7003;54688;52.376;16.744;2022-08-24T09:03:26;10;10;
67892;PMS7003;54688;52.376;16.744;2022-08-24T09:09:56;8;8;
67892;PMS7003;54688;52.376;16.744;2022-08-24T09:13:11;12;10;
67892;PMS7003;54688;52.376;16.744;2022-08-24T09:16:26;9;9;
67892;PMS7003;54688;52.376;16.744;2022-08-24T09:19:42;9;9;
67892;PMS7003;54688;52.376;16.744;2022-08-24T09:22:59;9;8;
67892;PMS7003;54688;52.376;16.744;2022-08-24T09:26:07;8;7;
67892;PMS7003;54688;52.376;16.744;2022-08-24T09:29:15;10;9;
67892;PMS7003;54688;52.376;16.744;2022-08-24T09:32:49;13;11;
67892;PMS7003;54688;52.376;16.744;2022-08-24T09:36:07;15;14;
67892;PMS7003;54688;52.376;16.744;2022-08-24T09:39:21;12;12;
67892;PMS7003;54688;52.376;16.744;2022-08-24T09:47:35;13;10;
67892;PMS7003;54688;52.376;16.744;2022-08-24T09:50:51;12;12;
67892;PMS7003;54688;52.376;16.744;2022-08-24T09:54:14;13;12;
67892;PMS7003;54688;52.376;16.744;2022-08-24T09:57:33;13;12;
67892;PMS7003;54688;52.376;16.744;2022-08-24T10:00:44;12;11;
67892;PMS7003;54688;52.376;16.744;2022-08-24T10:03:54;20;16;
67892;PMS7003;54688;52.376;16.744;2022-08-24T10:07:07;13;13;
67892;PMS7003;54688;52.376;16.744;2022-08-24T10:10:23;14;11;
67892;PMS7003;54688;52.376;16.744;2022-08-24T10:13:38;16;15;
67892;PMS7003;54688;52.376;16.744;2022-08-24T10:16:48;13;11;
67892;PMS7003;54688;52.376;16.744;2022-08-24T10:20:04;12;11;
67892;PMS7003;54688;52.376;16.744;2022-08-24T10:23:27;22;13;
67892;PMS7003;54688;52.376;16.744;2022-08-24T10:26:39;16;12;
67892;PMS7003;54688;52.376;16.744;2022-08-24T10:30:06;15;14;
67892;PMS7003;54688;52.376;16.744;2022-08-24T10:33:18;11;11;
67892;PMS7003;54688;52.376;16.744;2022-08-24T10:36:32;10;8;
67892;PMS7003;54688;52.376;16.744;2022-08-24T10:39:56;13;12;
67892;PMS7003;54688;52.376;16.744;2022-08-24T10:43:25;9;9;
67892;PMS7003;54688;52.376;16.744;2022-08-24T10:46:43;15;12;
67892;PMS7003;54688;52.376;16.744;2022-08-24T10:50:06;12;12;
67892;PMS7003;54688;52.376;16.744;2022-08-24T10:53:19;15;14;
67892;PMS7003;54688;52.376;16.744;2022-08-24T10:56:29;16;16;
67892;PMS7003;54688;52.376;16.744;2022-08-24T10:59:37;15;14;
67892;PMS7003;54688;52.376;16.744;2022-08-24T11:02:44;14;13;
67892;PMS7003;54688;52.376;16.744;2022-08-24T11:05:49;16;13;
67892;PMS7003;54688;52.376;16.744;2022-08-24T11:08:56;12;12;
67892;PMS7003;54688;52.376;16.744;2022-08-24T11:12:16;11;10;
67892;PMS7003;54688;52.376;16.744;2022-08-24T11:15:23;13;12;
67892;PMS7003;54688;52.376;16.744;2022-08-24T11:18:45;13;11;
67892;PMS7003;54688;52.376;16.744;2022-08-24T11:21:49;15;12;
67892;PMS7003;54688;52.376;16.744;2022-08-24T11:24:54;13;12;
67892;PMS7003;54688;52.376;16.744;2022-08-24T11:30:57;13;13;
67892;PMS7003;54688;52.376;16.744;2022-08-24T11:34:01;9;9;
67892;PMS7003;54688;52.376;16.744;2022-08-24T11:37:09;12;12;
67892;PMS7003;54688;52.376;16.744;2022-08-24T11:43:23;14;12;
67892;PMS7003;54688;52.376;16.744;2022-08-24T11:46:36;13;12;
67892;PMS7003;54688;52.376;16.744;2022-08-24T11:49:46;11;10;
67892;PMS7003;54688;52.376;16.744;2022-08-24T11:52:56;13;11;
67892;PMS7003;54688;52.376;16.744;2022-08-24T11:56:06;12;12;
67892;PMS7003;54688;52.376;16.744;2022-08-24T11:59:15;12;10;
67892;PMS7003;54688;52.376;16.744;2022-08-24T12:02:24;12;12;
67892;PMS7003;54688;52.376;16.744;2022-08-24T12:05:33;16;13;
67892;PMS7003;54688;52.376;16.744;2022-08-24T12:08:46;19;14;
67892;PMS7003;54688;52.376;16.744;2022-08-24T12:11:59;16;14;
67892;PMS7003;54688;52.376;16.744;2022-08-24T12:15:07;14;11;
67892;PMS7003;54688;52.376;16.744;2022-08-24T12:18:20;13;11;
67892;PMS7003;54688;52.376;16.744;2022-08-24T12:21:27;14;12;
67892;PMS7003;54688;52.376;16.744;2022-08-24T12:24:32;13;13;
67892;PMS7003;54688;52.376;16.744;2022-08-24T12:27:37;12;12;
67892;PMS7003;54688;52.376;16.744;2022-08-24T12:30:39;11;11;
67892;PMS7003;54688;52.376;16.744;2022-08-24T12:33:44;12;12;
67892;PMS7003;54688;52.376;16.744;2022-08-24T12:36:56;15;12;
67892;PMS7003;54688;52.376;16.744;2022-08-24T12:40:05;10;10;
67892;PMS7003;54688;52.376;16.744;2022-08-24T12:43:11;17;13;
67892;PMS7003;54688;52.376;16.744;2022-08-24T12:46:19;11;11;
67892;PMS7003;54688;52.376;16.744;2022-08-24T12:49:28;9;9;
67892;PMS7003;54688;52.376;16.744;2022-08-24T12:54:51;8;8;
67892;PMS7003;54688;52.376;16.744;2022-08-24T12:58:04;18;12;
67892;PMS7003;54688;52.376;16.744;2022-08-24T13:01:09;11;11;
67892;PMS7003;54688;52.376;16.744;2022-08-24T13:04:16;11;10;
67892;PMS7003;54688;52.376;16.744;2022-08-24T13:07:27;14;10;
67892;PMS7003;54688;52.376;16.744;2022-08-24T13:10:37;10;10;
67892;PMS7003;54688;52.376;16.744;2022-08-24T13:16:49;10;10;
67892;PMS7003;54688;52.376;16.744;2022-08-24T13:20:18;13;11;
67892;PMS7003;54688;52.376;16.744;2022-08-24T13:23:22;12;12;
67892;PMS7003;54688;52.376;16.744;2022-08-24T13:26:25;11;11;
67892;PMS7003;54688;52.376;16.744;2022-08-24T13:29:29;14;9;
67892;PMS7003;54688;52.376;16.744;2022-08-24T13:32:38;12;11;
67892;PMS7003;54688;52.376;16.744;2022-08-24T13:36:00;12;11;
67892;PMS7003;54688;52.376;16.744;2022-08-24T13:39:11;12;11;
67892;PMS7003;54688;52.376;16.744;2022-08-24T13:48:24;14;12;
67892;PMS7003;54688;52.376;16.744;2022-08-24T13:51:38;12;12;
67892;PMS7003;54688;52.376;16.744;2022-08-24T13:54:51;16;11;
67892;PMS7003;54688;52.376;16.744;2022-08-24T13:58:12;14;13;
67892;PMS7003;54688;52.376;16.744;2022-08-24T14:01:24;9;9;
67892;PMS7003;54688;52.376;16.744;2022-08-24T14:04:41;24;17;
67892;PMS7003;54688;52.376;16.744;2022-08-24T14:07:51;14;12;
67892;PMS7003;54688;52.376;16.744;2022-08-24T14:11:01;12;11;
67892;PMS7003;54688;52.376;16.744;2022-08-24T14:14:09;11;9;
67892;PMS7003;54688;52.376;16.744;2022-08-24T14:17:18;12;12;
67892;PMS7003;54688;52.376;16.744;2022-08-24T14:20:40;10;10;
67892;PMS7003;54688;52.376;16.744;2022-08-24T14:23:48;12;11;
67892;PMS7003;54688;52.376;16.744;2022-08-24T14:27:00;13;12;
67892;PMS7003;54688;52.376;16.744;2022-08-24T14:30:42;14;11;
67892;PMS7003;54688;52.376;16.744;2022-08-24T14:33:52;14;11;
67892;PMS7003;54688;52.376;16.744;2022-08-24T14:36:59;11;10;
67892;PMS7003;54688;52.376;16.744;2022-08-24T14:40:11;18;14;
67892;PMS7003;54688;52.376;16.744;2022-08-24T14:43:22;17;12;
67892;PMS7003;54688;52.376;16.744;2022-08-24T14:46:32;11;11;
67892;PMS7003;54688;52.376;16.744;2022-08-24T14:49:44;16;13;
67892;PMS7003;54688;52.376;16.744;2022-08-24T14:53:01;15;13;
67892;PMS7003;54688;52.376;16.744;2022-08-24T14:56:16;13;12;
67892;PMS7003;54688;52.376;16.744;2022-08-24T14:59:32;13;13;
67892;PMS7003;54688;52.376;16.744;2022-08-24T15:02:54;13;12;
67892;PMS7003;54688;52.376;16.744;2022-08-24T15:06:08;16;14;
67892;PMS7003;54688;52.376;16.744;2022-08-24T15:09:18;13;12;
67892;PMS7003;54688;52.376;16.744;2022-08-24T15:12:28;14;13;
67892;PMS7003;54688;52.376;16.744;2022-08-24T15:15:35;12;12;
67892;PMS7003;54688;52.376;16.744;2022-08-24T15:18:42;17;14;
67892;PMS7003;54688;52.376;16.744;2022-08-24T15:21:51;19;16;
67892;PMS7003;54688;52.376;16.744;2022-08-24T15:24:59;14;11;
67892;PMS7003;54688;52.376;16.744;2022-08-24T15:28:10;14;10;
67892;PMS7003;54688;52.376;16.744;2022-08-24T15:31:18;15;11;
67892;PMS7003;54688;52.376;16.744;2022-08-24T15:34:32;13;11;
67892;PMS7003;54688;52.376;16.744;2022-08-24T15:37:37;16;14;
67892;PMS7003;54688;52.376;16.744;2022-08-24T15:40:39;13;12;
67892;PMS7003;54688;52.376;16.744;2022-08-24T15:43:45;16;16;
67892;PMS7003;54688;52.376;16.744;2022-08-24T15:46:49;18;15;
67892;PMS7003;54688;52.376;16.744;2022-08-24T15:49:55;13;13;
67892;PMS7003;54688;52.376;16.744;2022-08-24T15:52:59;17;14;
67892;PMS7003;54688;52.376;16.744;2022-08-24T15:56:29;16;14;
67892;PMS7003;54688;52.376;16.744;2022-08-24T15:59:45;17;16;
67892;PMS7003;54688;52.376;16.744;2022-08-24T16:02:48;16;16;
67892;PMS7003;54688;52.376;16.744;2022-08-24T16:05:52;18;18;
67892;PMS7003;54688;52.376;16.744;2022-08-24T16:09:01;16;16;
67892;PMS7003;54688;52.376;16.744;2022-08-24T16:12:07;18;17;
67892;PMS7003;54688;52.376;16.744;2022-08-24T16:15:13;17;15;
67892;PMS7003;54688;52.376;16.744;2022-08-24T16:18:17;20;19;
67892;PMS7003;54688;52.376;16.744;2022-08-24T16:21:27;19;15;
67892;PMS7003;54688;52.376;16.744;2022-08-24T16:24:33;19;17;
67892;PMS7003;54688;52.376;16.744;2022-08-24T16:27:57;15;14;
67892;PMS7003;54688;52.376;16.744;2022-08-24T16:31:02;19;16;
67892;PMS7003;54688;52.376;16.744;2022-08-24T16:34:15;15;12;
67892;PMS7003;54688;52.376;16.744;2022-08-24T16:37:19;19;16;
67892;PMS7003;54688;52.376;16.744;2022-08-24T16:40:21;12;12;
67892;PMS7003;54688;52.376;16.744;2022-08-24T16:43:23;17;13;
67892;PMS7003;54688;52.376;16.744;2022-08-24T16:46:26;13;12;
67892;PMS7003;54688;52.376;16.744;2022-08-24T16:49:28;16;14;
67892;PMS7003;54688;52.376;16.744;2022-08-24T16:52:30;15;13;
67892;PMS7003;54688;52.376;16.744;2022-08-24T16:55:33;18;17;
67892;PMS7003;54688;52.376;16.744;2022-08-24T16:58:35;15;13;
67892;PMS7003;54688;52.376;16.744;2022-08-24T17:01:37;18;12;
67892;PMS7003;54688;52.376;16.744;2022-08-24T17:04:39;20;13;
67892;PMS7003;54688;52.376;16.744;2022-08-24T17:07:42;15;13;
67892;PMS7003;54688;52.376;16.744;2022-08-24T17:10:45;13;13;
67892;PMS7003;54688;52.376;16.744;2022-08-24T17:16:46;15;14;
67892;PMS7003;54688;52.376;16.744;2022-08-24T17:22:47;15;13;
67892;PMS7003;54688;52.376;16.744;2022-08-24T17:25:51;16;14;
67892;PMS7003;54688;52.376;16.744;2022-08-24T17:28:52;16;14;
67892;PMS7003;54688;52.376;16.744;2022-08-24T17:31:55;22;18;
67892;PMS7003;54688;52.376;16.744;2022-08-24T17:34:57;17;16;
67892;PMS7003;54688;52.376;16.744;2022-08-24T17:37:59;19;18;
67892;PMS7003;54688;52.376;16.744;2022-08-24T17:41:02;21;18;
67892;PMS7003;54688;52.376;16.744;2022-08-24T17:44:04;20;19;
67892;PMS7003;54688;52.376;16.744;2022-08-24T17:47:07;21;17;
67892;PMS7003;54688;52.376;16.744;2022-08-24T17:50:11;17;16;
67892;PMS7003;54688;52.376;16.744;2022-08-24T17:56:13;21;17;
67892;PMS7003;54688;52.376;16.744;2022-08-24T17:59:17;23;20;
67892;PMS7003;54688;52.376;16.744;2022-08-24T18:02:22;26;22;
67892;PMS7003;54688;52.376;16.744;2022-08-24T18:05:24;24;22;
67892;PMS7003;54688;52.376;16.744;2022-08-24T18:08:26;31;24;
67892;PMS7003;54688;52.376;16.744;2022-08-24T18:11:28;24;21;
67892;PMS7003;54688;52.376;16.744;2022-08-24T18:14:31;21;20;
67892;PMS7003;54688;52.376;16.744;2022-08-24T18:17:36;21;18;
67892;PMS7003;54688;52.376;16.744;2022-08-24T18:20:40;24;18;
67892;PMS7003;54688;52.376;16.744;2022-08-24T18:23:42;21;21;
67892;PMS7003;54688;52.376;16.744;2022-08-24T18:26:46;29;22;
67892;PMS7003;54688;52.376;16.744;2022-08-24T18:29:50;26;20;
67892;PMS7003;54688;52.376;16.744;2022-08-24T18:32:52;25;20;
67892;PMS7003;54688;52.376;16.744;2022-08-24T18:35:55;26;23;
67892;PMS7003;54688;52.376;16.744;2022-08-24T18:38:57;24;22;
67892;PMS7003;54688;52.376;16.744;2022-08-24T18:42:02;20;18;
67892;PMS7003;54688;52.376;16.744;2022-08-24T18:45:07;24;21;
67892;PMS7003;54688;52.376;16.744;2022-08-24T18:48:10;25;24;
67892;PMS7003;54688;52.376;16.744;2022-08-24T18:51:14;23;23;
67892;PMS7003;54688;52.376;16.744;2022-08-24T18:54:20;21;20;
67892;PMS7003;54688;52.376;16.744;2022-08-24T18:57:23;24;24;
67892;PMS7003;54688;52.376;16.744;2022-08-24T19:00:24;23;21;
67892;PMS7003;54688;52.376;16.744;2022-08-24T19:03:26;24;20;
67892;PMS7003;54688;52.376;16.744;2022-08-24T19:06:28;23;21;
67892;PMS7003;54688;52.376;16.744;2022-08-24T19:09:31;24;23;
67892;PMS7003;54688;52.376;16.744;2022-08-24T19:12:37;31;22;
67892;PMS7003;54688;52.376;16.744;2022-08-24T19:15:40;23;20;
67892;PMS7003;54688;52.376;16.744;2022-08-24T19:18:42;26;22;
67892;PMS7003;54688;52.376;16.744;2022-08-24T19:21:45;25;22;
67892;PMS7003;54688;52.376;16.744;2022-08-24T19:24:47;26;20;
67892;PMS7003;54688;52.376;16.744;2022-08-24T19:27:52;30;22;
67892;PMS7003;54688;52.376;16.744;2022-08-24T19:30:56;28;24;
67892;PMS7003;54688;52.376;16.744;2022-08-24T19:34:00;24;21;
67892;PMS7003;54688;52.376;16.744;2022-08-24T19:37:03;24;24;
67892;PMS7003;54688;52.376;16.744;2022-08-24T19:40:06;24;24;
67892;PMS7003;54688;52.376;16.744;2022-08-24T19:43:09;26;21;
67892;PMS7003;54688;52.376;16.744;2022-08-24T19:46:11;22;21;
67892;PMS7003;54688;52.376;16.744;2022-08-24T19:49:13;21;19;
67892;PMS7003;54688;52.376;16.744;2022-08-24T19:52:16;30;25;
67892;PMS7003;54688;52.376;16.744;2022-08-24T19:55:18;28;25;
67892;PMS7003;54688;52.376;16.744;2022-08-24T19:58:23;22;22;
67892;PMS7003;54688;52.376;16.744;2022-08-24T20:01:30;24;20;
67892;PMS7003;54688;52.376;16.744;2022-08-24T20:04:33;28;25;
67892;PMS7003;54688;52.376;16.744;2022-08-24T20:07:36;23;22;
67892;PMS7003;54688;52.376;16.744;2022-08-24T20:10:38;36;29;
67892;PMS7003;54688;52.376;16.744;2022-08-24T20:13:40;22;22;
67892;PMS7003;54688;52.376;16.744;2022-08-24T20:16:43;23;22;
67892;PMS7003;54688;52.376;16.744;2022-08-24T20:19:45;27;24;
67892;PMS7003;54688;52.376;16.744;2022-08-24T20:22:48;29;24;
67892;PMS7003;54688;52.376;16.744;2022-08-24T20:25:50;27;24;
67892;PMS7003;54688;52.376;16.744;2022-08-24T20:28:55;21;20;
67892;PMS7003;54688;52.376;16.744;2022-08-24T20:31:58;29;23;
67892;PMS7003;54688;52.376;16.744;2022-08-24T20:35:02;24;23;
67892;PMS7003;54688;52.376;16.744;2022-08-24T20:38:04;30;24;
67892;PMS7003;54688;52.376;16.744;2022-08-24T20:41:07;23;21;
67892;PMS7003;54688;52.376;16.744;2022-08-24T20:44:09;25;22;
67892;PMS7003;54688;52.376;16.744;2022-08-24T20:47:12;27;25;
67892;PMS7003;54688;52.376;16.744;2022-08-24T20:50:16;22;19;
67892;PMS7003;54688;52.376;16.744;2022-08-24T20:53:22;31;28;
67892;PMS7003;54688;52.376;16.744;2022-08-24T20:56:28;25;22;
67892;PMS7003;54688;52.376;16.744;2022-08-24T20:59:33;27;25;
67892;PMS7003;54688;52.376;16.744;2022-08-24T21:02:35;21;20;
67892;PMS7003;54688;52.376;16.744;2022-08-24T21:05:37;24;22;